Aeroporto :
LOGIN :

Iscrizione | Disclaimer

   EN    FR    IT 

 










Sommario :    VFR   VFR Marginale   IFR   IFR Intensivo   IFR Molto Intensivo
Visibilità : 
Base nubi : 
>= 8 km
>= 3000ft
5 / 8 km
1000 / 3000 ft
1500m / 5 km
500 / 1000 ft
800 / 1500m
200 / 500 ft
< 800m
< 200 ft
Simboli :   Temporali  Nebbia  Neve Forte  Precipitazioni Forti  Vento > 20 kt
SIGMETs :   Varie  Temporali  Ghiacco  Turbolenza  Onda orograficha  Ceneri Vulcaniche







- Altitudine del aeroporto : 0 ft


ETEB - Ansbach Army Heliport

ULTIMO METAR :
  • 191556Z AUTO 34010KT 9999 CLR 24/14 A3001 RMK AO2 SLP158 T02420137 $

METARs OBSOLETI :
  • 191456Z AUTO 30009KT 9999 FEW060 FEW095 24/12 A3001 RMK AO2 SLP158 T02440123 56004 $
  • 191356Z AUTO 26010KT 9999 FEW060 25/12 A3001 RMK AO2 SLP158 T02510120 $

TAF TAF ETEB
Valido dal 19 a 13 ore il 20 a 19 ore UTC


191302Z 1913/2019 26009KT 9999 FEW050 BKN070 QNH3000INS
BECMG 1915/1916 26009KT 9999 BKN070 QNH3001INS
BECMG 2001/2002 VRB06KT 9999 SCT050 QNH3003INS
BECMG 2008/2009 18009KT 9999 SKC QNH3001INS
BECMG 2011/2012 20010G15KT 9999 FEW080 QNH2999INS
BECMG 2017/2018 24015G20KT 8000 -TSRA BKN090CB QNH2997INS TX27/1915Z TN15/2003Z
Nessun NOTAM noto per questo aeroporto.



MetMap, La meteo Aeronautica in un colpo d'occhio ! - Copyright ORBIFLY Dicembre 2007 - Disclaimer

ORBIFLY MET'MAP TEAM :

Programmazione e sviluppo : Alexandra Zaïnal
Concezione e sviluppo : Baudouin d'Aumeries
Co-Programmazione e sviluppo : Marc-Olivier Méhu
Supporto tecnico e logistico : Manuel Goepfert
Aiuto per la traduzione : Arnaldo La Scala

Contatto : metmap@orbifly.com




FONTI E CREDITI :

   NOAA